Hills and Dales, Ohio
Current Conditions -  °F | °C
As of 12:51 AM on Saturday 25 Oct 2014 (Local Time) from KCAK Reporting Station
Few Clouds Few Clouds  
Wind Chill: 51°   Ceiling: Unl
Heat Index: 51°   Visibility: 10mi
Dew Point: 38°   Wind: 5mph
Humidity: 61%   Direction: 230°SW
Pressure: 30"   Gusts: NA
Location:  40.8156°N, 81.4331°W
Report Text: KCAK 250451Z 23004KT 10SM FEW043 11/03 A3000 RMK AO2 SLP158 T01060033 401670028
Loading
Personal Weather Stations






























Interactive Weather Map
Tropical Storm Tracking
New forecast layout! Learn more

10-Day Weather Forecast

Advertisements
Track Severe Weather on mobile